Time;durP1;ratioP1;P1;durP2;ratioP2;P2;SDS_P1;SDS_P2;PMS_P1;PMS_P2;Temp;Humidity;BMP_temperature;BMP_pressure;BME280_temperature;BME280_humidity;BME280_pressure;Samples;Min_cycle;Max_cycle;Signal;HPM_P1;HPM_P2
2023/02/14 00:02:18;;;;;;;62.65;20.20;;;;;;;0.07;100.00;98133.34;5052321;28;20127;-75
2023/02/14 00:04:46;;;;;;;46.78;18.98;;;;;;;0.09;100.00;98136.63;5052690;28;20048;-76
2023/02/14 00:07:14;;;;;;;39.10;18.13;;;;;;;0.07;100.00;98130.69;5052274;28;20049;-75
2023/02/14 00:09:40;;;;;;;47.38;18.83;;;;;;;0.11;100.00;98129.25;5051919;28;20444;-76
2023/02/14 00:12:07;;;;;;;36.75;16.95;;;;;;;0.19;100.00;98134.38;5051342;28;20048;-73
2023/02/14 00:17:19;;;;;;;35.92;17.40;;;;;;;0.28;100.00;98136.84;5052322;28;20175;-74
2023/02/14 00:19:45;;;;;;;56.55;18.65;;;;;;;0.31;100.00;98131.03;5051602;28;20044;-73
2023/02/14 00:22:11;;;;;;;35.05;16.95;;;;;;;0.29;100.00;98122.41;5052035;28;20044;-73
2023/02/14 00:24:38;;;;;;;45.50;19.33;;;;;;;0.29;100.00;98127.75;5052669;28;20049;-73
2023/02/14 00:27:04;;;;;;;35.63;17.80;;;;;;;0.22;100.00;98138.50;5051923;28;20044;-73
2023/02/14 00:29:32;;;;;;;36.90;17.17;;;;;;;0.24;100.00;98137.25;5051910;28;20048;-74
2023/02/14 00:31:59;;;;;;;38.97;17.05;;;;;;;0.16;100.00;98137.47;5051941;28;20413;-73
2023/02/14 00:34:27;;;;;;;37.60;17.73;;;;;;;0.20;100.00;98130.66;5051438;28;20485;-76
2023/02/14 00:36:54;;;;;;;37.33;17.80;;;;;;;0.28;100.00;98139.53;5051951;28;20136;-73
2023/02/14 00:39:20;;;;;;;38.85;16.88;;;;;;;0.35;100.00;98143.00;5051669;28;20636;-73
2023/02/14 00:41:47;;;;;;;32.03;15.98;;;;;;;0.34;100.00;98142.19;5052234;28;20037;-73
2023/02/14 00:44:14;;;;;;;33.25;15.65;;;;;;;0.34;100.00;98146.72;5051545;28;20041;-75
2023/02/14 00:46:41;;;;;;;34.50;17.33;;;;;;;0.36;100.00;98145.47;5051515;28;20048;-75
2023/02/14 00:49:07;;;;;;;44.97;17.77;;;;;;;0.36;100.00;98140.09;5046283;28;20045;-75
2023/02/14 00:51:35;;;;;;;47.17;18.23;;;;;;;0.34;100.00;98136.81;5051866;28;20072;-76
2023/02/14 00:54:02;;;;;;;36.63;17.27;;;;;;;0.29;100.00;98144.66;5051323;28;20143;-75
2023/02/14 00:56:28;;;;;;;32.00;15.45;;;;;;;0.29;100.00;98141.97;5051825;28;20048;-75
2023/02/14 00:58:55;;;;;;;65.45;17.70;;;;;;;0.23;100.00;98140.13;5051602;28;20411;-75
2023/02/14 01:01:21;;;;;;;66.45;17.02;;;;;;;0.11;100.00;98139.13;5050982;28;20193;-75
2023/02/14 01:03:48;;;;;;;33.85;15.85;;;;;;;0.03;100.00;98140.16;5051608;28;20044;-75
2023/02/14 01:06:15;;;;;;;32.90;16.27;;;;;;;0.12;100.00;98144.28;5051305;28;20045;-74
2023/02/14 01:08:43;;;;;;;43.05;16.73;;;;;;;0.14;100.00;98139.53;5051371;28;20124;-75
2023/02/14 01:11:12;;;;;;;34.20;16.92;;;;;;;0.14;100.00;98152.91;5051105;28;20053;-74
2023/02/14 01:13:39;;;;;;;32.33;16.58;;;;;;;0.17;100.00;98140.97;5051591;28;20044;-75
2023/02/14 01:16:08;;;;;;;37.40;16.77;;;;;;;0.17;100.00;98147.16;5051193;28;20045;-73
2023/02/14 01:18:35;;;;;;;35.63;17.00;;;;;;;0.21;100.00;98140.34;5050732;28;20044;-73
2023/02/14 01:21:17;;;;;;;42.75;17.38;;;;;;;0.18;100.00;98140.75;5050948;28;20041;-76
2023/02/14 01:23:46;;;;;;;41.78;17.15;;;;;;;0.16;100.00;98142.84;5051433;28;20493;-75
2023/02/14 01:26:13;;;;;;;40.85;17.42;;;;;;;0.13;100.00;98145.91;5050882;28;20049;-75
2023/02/14 01:28:40;;;;;;;35.05;16.50;;;;;;;0.10;100.00;98151.69;5051116;28;20056;-75
2023/02/14 01:31:10;;;;;;;35.88;16.45;;;;;;;0.12;100.00;98149.63;5050728;28;20102;-75
2023/02/14 01:33:37;;;;;;;50.30;15.85;;;;;;;0.01;100.00;98147.59;5050604;28;20053;-74
2023/02/14 01:36:04;;;;;;;33.13;15.82;;;;;;;0.09;100.00;98159.94;5050556;28;20055;-74
2023/02/14 01:38:31;;;;;;;29.42;14.43;;;;;;;0.09;100.00;98155.41;5051037;28;20041;-73
2023/02/14 01:40:59;;;;;;;35.22;14.98;;;;;;;0.10;100.00;98145.50;5051377;28;20044;-75
2023/02/14 01:43:26;;;;;;;43.35;16.58;;;;;;;-0.09;100.00;98150.66;5050727;28;20106;-75
2023/02/14 01:45:53;;;;;;;33.58;15.25;;;;;;;-0.03;100.00;98151.69;5051085;28;20404;-73
2023/02/14 01:48:21;;;;;;;32.33;14.98;;;;;;;0.04;100.00;98152.50;5050127;28;20052;-73
2023/02/14 01:50:51;;;;;;;31.08;14.55;;;;;;;0.10;100.00;98149.00;5051158;28;20040;-74
2023/02/14 01:53:21;;;;;;;30.25;15.23;;;;;;;0.13;100.00;98151.28;5050863;28;20040;-73
2023/02/14 01:55:53;;;;;;;45.03;16.70;;;;;;;0.08;100.00;98159.09;5051276;28;20048;-73
2023/02/14 01:58:26;;;;;;;32.92;15.63;;;;;;;0.09;100.00;98149.22;5050852;28;20049;-73
2023/02/14 02:00:59;;;;;;;34.40;15.88;;;;;;;0.10;100.00;98151.69;5050740;28;20053;-74
2023/02/14 02:03:29;;;;;;;38.28;16.83;;;;;;;0.11;100.00;98148.00;5050304;28;20052;-76
2023/02/14 02:06:03;;;;;;;36.53;15.13;;;;;;;0.14;100.00;98147.56;5051797;28;20069;-75
2023/02/14 02:08:29;;;;;;;33.55;15.80;;;;;;;0.12;100.00;98144.28;5051544;28;20037;-76
2023/02/14 02:10:56;;;;;;;35.10;15.90;;;;;;;0.11;100.00;98142.63;5054540;28;20049;-75
2023/02/14 02:13:24;;;;;;;30.65;15.00;;;;;;;0.13;100.00;98145.09;5054359;28;20048;-73
2023/02/14 02:16:04;;;;;;;32.92;14.82;;;;;;;0.01;100.00;98142.22;5055347;28;20398;-74
2023/02/14 02:18:39;;;;;;;34.10;14.43;;;;;;;0.02;100.00;98138.50;5055338;28;20041;-73
2023/02/14 02:21:33;;;;;;;49.65;16.52;;;;;;;-0.01;100.00;98141.59;5049561;28;20115;-73
2023/02/14 02:24:22;;;;;;;38.22;15.13;;;;;;;0.01;100.00;98144.91;5052012;28;20052;-76
2023/02/14 02:27:13;;;;;;;32.53;15.10;;;;;;;-0.02;100.00;98129.22;5051650;28;20044;-74
2023/02/14 02:30:03;;;;;;;30.52;14.57;;;;;;;0.00;100.00;98121.84;5030411;28;20043;-74
2023/02/14 02:33:02;;;;;;;29.35;14.63;;;;;;;0.08;100.00;98116.25;5040539;28;20040;-74
2023/02/14 02:35:43;;;;;;;31.35;15.23;;;;;;;0.09;100.00;98125.09;5027567;28;20041;-75
2023/02/14 02:38:24;;;;;;;51.17;18.48;;;;;;;0.02;100.00;98124.31;5055028;28;20052;-73
2023/02/14 02:41:00;;;;;;;115.35;20.27;;;;;;;-0.13;100.00;98125.31;5055411;28;20048;-74
2023/02/14 02:43:35;;;;;;;36.90;16.88;;;;;;;-0.08;100.00;98122.84;5055079;28;20044;-74
2023/02/14 02:48:59;;;;;;;43.28;17.65;;;;;;;0.00;100.00;98119.16;5058423;28;20059;-76
2023/02/14 02:54:33;;;;;;;44.85;16.25;;;;;;;-0.11;100.00;98111.72;5018829;28;20044;-75
2023/02/14 02:57:02;;;;;;;30.35;14.93;;;;;;;-0.07;100.00;98116.47;5053629;28;20049;-75
2023/02/14 02:59:32;;;;;;;34.10;15.43;;;;;;;-0.07;100.00;98112.97;5052967;28;20041;-74
2023/02/14 03:02:16;;;;;;;40.45;15.43;;;;;;;-0.11;100.00;98119.75;5053071;28;20048;-74
2023/02/14 03:04:52;;;;;;;39.80;15.43;;;;;;;-0.14;100.00;98117.50;5052005;28;20670;-74
2023/02/14 03:07:36;;;;;;;35.03;15.32;;;;;;;-0.12;100.00;98118.13;5052555;28;20041;-74
2023/02/14 03:10:07;;;;;;;30.65;14.13;;;;;;;-0.10;100.00;98118.75;5051904;28;20549;-75
2023/02/14 03:13:09;;;;;;;81.65;16.10;;;;;;;-0.14;100.00;98107.63;5052048;28;20041;-74
2023/02/14 03:15:47;;;;;;;37.80;14.63;;;;;;;-0.10;100.00;98108.84;5052330;28;20052;-74
2023/02/14 03:18:28;;;;;;;29.15;14.90;;;;;;;-0.13;100.00;98108.44;5052734;28;20052;-75
2023/02/14 03:21:01;;;;;;;35.80;13.98;;;;;;;-0.10;100.00;98118.75;5054839;28;20052;-74
2023/02/14 03:23:34;;;;;;;52.78;14.82;;;;;;;-0.16;100.00;98119.56;5055040;28;20033;-74
2023/02/14 03:26:12;;;;;;;29.75;13.68;;;;;;;-0.14;100.00;98122.88;5055469;28;20059;-73
2023/02/14 03:28:43;;;;;;;36.05;13.20;;;;;;;-0.36;100.00;98122.25;5055206;28;20049;-75
2023/02/14 03:31:19;;;;;;;92.32;15.20;;;;;;;-0.44;100.00;98122.44;5054572;28;20049;-75
2023/02/14 03:33:54;;;;;;;29.08;12.60;;;;;;;-0.40;100.00;98119.16;5054333;28;20041;-75
2023/02/14 03:36:24;;;;;;;30.60;13.15;;;;;;;-0.44;100.00;98125.94;5048376;28;20060;-75
2023/02/14 03:38:57;;;;;;;26.27;12.57;;;;;;;-0.47;100.00;98121.00;5049156;28;20637;-75
2023/02/14 03:41:26;;;;;;;;;;;;;;;-0.73;100.00;98123.59;5049297;28;20127;-75
2023/02/14 03:43:57;;;;;;;24.40;12.38;;;;;;;-0.63;100.00;98119.50;5048772;28;20333;-75
2023/02/14 03:46:28;;;;;;;29.08;13.13;;;;;;;-0.58;100.00;98124.25;5048708;28;20049;-76
2023/02/14 03:48:58;;;;;;;34.85;13.85;;;;;;;-0.59;100.00;98120.75;5048796;28;20120;-75
2023/02/14 03:51:27;;;;;;;72.35;16.58;;;;;;;-0.71;100.00;98116.22;5048424;28;20073;-74
2023/02/14 03:53:58;;;;;;;32.58;13.93;;;;;;;-0.79;100.00;98125.25;5048858;28;20041;-75
2023/02/14 03:56:33;;;;;;;86.30;17.35;;;;;;;-0.99;100.00;98130.56;5048798;28;20045;-76
2023/02/14 03:59:08;;;;;;;101.68;18.85;;;;;;;-1.12;100.00;98131.31;5049302;28;20048;-75
2023/02/14 04:01:39;;;;;;;30.27;13.68;;;;;;;-0.88;100.00;98132.66;5049314;28;20048;-75
2023/02/14 04:04:07;;;;;;;37.03;16.55;;;;;;;-0.81;100.00;98133.47;5048219;28;20501;-76
2023/02/14 04:06:33;;;;;;;39.97;15.98;;;;;;;-0.68;100.00;98131.84;5049478;28;20052;-75
2023/02/14 04:09:01;;;;;;;32.53;14.93;;;;;;;-0.59;100.00;98125.28;5048837;28;20045;-75
2023/02/14 04:11:32;;;;;;;35.53;16.23;;;;;;;-0.51;100.00;98126.97;5048871;28;20044;-75
2023/02/14 04:13:58;;;;;;;31.15;14.15;;;;;;;-0.48;100.00;98122.00;5048940;28;20041;-75
2023/02/14 04:16:25;;;;;;;45.25;16.02;;;;;;;-0.55;100.00;98123.88;5048569;28;20088;-75
2023/02/14 04:21:35;;;;;;;33.63;14.93;;;;;;;-0.70;100.00;98123.22;5049152;28;20413;-75
2023/02/14 04:24:03;;;;;;;29.55;15.35;;;;;;;-0.61;100.00;98119.31;5050473;28;20064;-75
2023/02/14 04:26:30;;;;;;;33.50;15.20;;;;;;;-0.58;100.00;98126.94;5052101;28;20044;-75
2023/02/14 04:28:56;;;;;;;46.03;16.02;;;;;;;-0.54;100.00;98117.47;5051984;28;20107;-75
2023/02/14 04:31:23;;;;;;;31.48;14.00;;;;;;;-0.56;100.00;98115.00;5050707;28;20053;-75
2023/02/14 04:33:50;;;;;;;28.38;13.70;;;;;;;-0.59;100.00;98109.22;5051431;28;20076;-75
2023/02/14 04:36:16;;;;;;;31.85;15.55;;;;;;;-0.68;100.00;98111.31;5051333;28;20496;-75
2023/02/14 04:38:43;;;;;;;32.78;14.90;;;;;;;-0.81;100.00;98112.06;5051248;28;20083;-75
2023/02/14 04:41:10;;;;;;;75.68;16.42;;;;;;;-1.13;100.00;98113.63;5051624;28;20041;-76
2023/02/14 04:43:37;;;;;;;79.43;19.48;;;;;;;-1.39;100.00;98114.34;5052235;28;20107;-75
2023/02/14 04:46:04;;;;;;;127.15;21.10;;;;;;;-1.57;100.00;98116.72;5051356;28;20049;-75
2023/02/14 04:48:30;;;;;;;97.40;21.30;;;;;;;-1.53;100.00;98101.13;5051998;28;20044;-75
2023/02/14 04:50:57;;;;;;;113.80;21.75;;;;;;;-1.55;100.00;98101.31;5052013;28;20535;-75
2023/02/14 04:53:23;;;;;;;79.70;21.48;;;;;;;-1.53;100.00;98101.94;5051193;28;20045;-75
2023/02/14 04:55:50;;;;;;;121.10;23.65;;;;;;;-1.66;100.00;98092.03;5051531;28;20045;-76
2023/02/14 04:58:18;;;;;;;105.45;22.00;;;;;;;-1.55;100.00;98087.97;5051509;28;20041;-75
2023/02/14 05:00:45;;;;;;;78.10;23.05;;;;;;;-1.64;100.00;98094.50;5052029;28;20043;-75
2023/02/14 05:03:11;;;;;;;56.38;21.02;;;;;;;-1.41;100.00;98094.19;5051051;28;20045;-75
2023/02/14 05:05:38;;;;;;;59.15;21.42;;;;;;;-1.27;100.00;98089.72;5051471;28;20045;-75
2023/02/14 05:08:04;;;;;;;55.17;20.95;;;;;;;-1.26;100.00;98094.03;5051147;28;20053;-76
2023/02/14 05:10:31;;;;;;;53.92;20.23;;;;;;;-1.15;100.00;98090.78;5051539;28;20045;-75
2023/02/14 05:12:57;;;;;;;41.15;18.80;;;;;;;-1.07;100.00;98099.47;5051529;28;20045;-75
2023/02/14 05:15:25;;;;;;;46.97;21.63;;;;;;;-0.94;100.00;98101.38;5050246;28;20049;-75
2023/02/14 05:17:52;;;;;;;63.42;20.05;;;;;;;-0.96;100.00;98098.06;5051076;28;20045;-75
2023/02/14 05:20:18;;;;;;;39.80;18.52;;;;;;;-0.97;100.00;98096.41;5051046;28;20060;-75
2023/02/14 05:22:45;;;;;;;37.30;17.50;;;;;;;-0.97;100.00;98096.41;5051255;28;20396;-75
2023/02/14 05:25:11;;;;;;;64.40;18.65;;;;;;;-1.08;100.00;98099.66;5051094;28;20094;-75
2023/02/14 05:27:37;;;;;;;38.33;16.98;;;;;;;-0.96;100.00;98097.22;5051845;28;20390;-75
2023/02/14 05:30:05;;;;;;;35.40;16.85;;;;;;;-0.93;100.00;98097.66;5051352;28;20060;-75
2023/02/14 05:32:33;;;;;;;38.42;17.42;;;;;;;-0.90;100.00;98086.53;5051303;28;20045;-75
2023/02/14 05:34:59;;;;;;;48.30;19.25;;;;;;;-0.84;100.00;98095.59;5051214;28;20053;-75
2023/02/14 05:37:26;;;;;;;44.78;20.70;;;;;;;-0.92;100.00;98093.94;5050701;28;20067;-75
2023/02/14 05:39:52;;;;;;;39.70;17.58;;;;;;;-0.75;100.00;98089.03;5051281;28;20048;-75
2023/02/14 05:42:19;;;;;;;46.40;18.35;;;;;;;-0.65;100.00;98099.34;5051117;28;20049;-76
2023/02/14 05:44:45;;;;;;;41.35;18.50;;;;;;;-0.58;100.00;98095.63;5051445;28;20128;-76
2023/02/14 05:47:12;;;;;;;47.13;19.48;;;;;;;-0.65;100.00;98096.69;5050498;28;20414;-75
2023/02/14 05:49:40;;;;;;;38.47;18.25;;;;;;;-0.55;100.00;98099.78;5051156;28;20044;-75
2023/02/14 05:52:06;;;;;;;40.50;18.75;;;;;;;-0.53;100.00;98097.72;5050695;28;20052;-75
2023/02/14 05:54:33;;;;;;;56.65;18.70;;;;;;;-0.54;100.00;98093.38;5051077;28;20048;-75
2023/02/14 05:56:59;;;;;;;74.03;20.45;;;;;;;-0.60;100.00;98091.53;5051720;28;20049;-76
2023/02/14 05:59:26;;;;;;;49.35;18.65;;;;;;;-0.71;100.00;98084.13;5050929;28;20052;-75
2023/02/14 06:01:52;;;;;;;37.80;18.48;;;;;;;-0.78;100.00;98089.47;5050910;28;20045;-75
2023/02/14 06:04:19;;;;;;;36.42;17.45;;;;;;;-0.67;100.00;98096.06;5049884;28;20052;-75
2023/02/14 06:06:47;;;;;;;43.45;18.05;;;;;;;-0.65;100.00;98102.03;5050548;28;20456;-76
2023/02/14 06:09:14;;;;;;;56.45;18.50;;;;;;;-0.72;100.00;98099.34;5050214;28;20063;-75
2023/02/14 06:11:40;;;;;;;35.50;17.98;;;;;;;-0.70;100.00;98109.84;5051595;28;20048;-75
2023/02/14 06:14:07;;;;;;;42.10;18.23;;;;;;;-0.65;100.00;98110.88;5050630;28;20051;-75
2023/02/14 06:16:33;;;;;;;43.10;18.60;;;;;;;-0.60;100.00;98111.09;5050290;28;20045;-75
2023/02/14 06:19:00;;;;;;;39.83;18.25;;;;;;;-0.59;100.00;98109.22;5051725;28;20401;-74
2023/02/14 06:21:26;;;;;;;38.90;17.05;;;;;;;-0.55;100.00;98105.13;5050679;28;20053;-75
2023/02/14 06:23:54;;;;;;;41.40;18.15;;;;;;;-0.53;100.00;98108.41;5051065;28;20073;-75
2023/02/14 06:26:20;;;;;;;37.10;17.30;;;;;;;-0.45;100.00;98110.09;5050245;28;20438;-75
2023/02/14 06:28:47;;;;;;;56.42;18.65;;;;;;;-0.59;100.00;98109.22;5052017;28;20048;-75
2023/02/14 06:31:17;;;;;;;59.40;19.60;;;;;;;-0.89;100.00;98109.59;5051794;28;20052;-76
2023/02/14 06:33:44;;;;;;;40.45;19.50;;;;;;;-0.74;100.00;98108.59;5053429;28;20056;-75
2023/02/14 06:36:10;;;;;;;45.20;20.13;;;;;;;-0.65;100.00;98115.41;5053218;28;20044;-75
2023/02/14 06:38:37;;;;;;;46.95;19.58;;;;;;;-0.60;100.00;98107.59;5056096;28;20045;-75
2023/02/14 06:41:06;;;;;;;44.05;19.38;;;;;;;-0.56;100.00;98119.53;5054519;28;20052;-75
2023/02/14 06:43:32;;;;;;;43.88;19.30;;;;;;;-0.51;100.00;98117.09;5055204;28;20052;-75
2023/02/14 06:45:59;;;;;;;50.03;17.65;;;;;;;-0.48;100.00;98121.19;5054500;28;20056;-76
2023/02/14 06:48:25;;;;;;;49.25;18.48;;;;;;;-0.59;100.00;98126.09;5054758;28;20048;-75
2023/02/14 06:50:52;;;;;;;39.67;18.15;;;;;;;-0.55;100.00;98122.00;5057537;28;20048;-74
2023/02/14 06:53:19;;;;;;;35.80;17.20;;;;;;;-0.46;100.00;98125.31;5055163;28;20045;-74
2023/02/14 06:55:45;;;;;;;42.53;17.10;;;;;;;-0.40;100.00;98124.50;5055336;28;20075;-74
2023/02/14 06:58:13;;;;;;;39.33;17.55;;;;;;;-0.50;100.00;98118.72;5056953;28;20120;-74
2023/02/14 07:00:40;;;;;;;36.33;17.52;;;;;;;-0.42;100.00;98120.38;5054769;28;20037;-74
2023/02/14 07:03:07;;;;;;;80.47;19.00;;;;;;;-0.63;100.00;98108.81;5054358;28;20049;-74
2023/02/14 07:05:35;;;;;;;35.42;17.35;;;;;;;-0.53;100.00;98113.75;5052484;28;20044;-74
2023/02/14 07:08:01;;;;;;;38.45;18.48;;;;;;;-0.46;100.00;98106.59;5050993;28;20045;-74
2023/02/14 07:10:28;;;;;;;37.47;17.90;;;;;;;-0.39;100.00;98114.63;5050518;28;20051;-74
2023/02/14 07:12:54;;;;;;;42.85;17.50;;;;;;;-0.42;100.00;98099.78;5049896;28;20045;-74
2023/02/14 07:15:22;;;;;;;49.80;18.42;;;;;;;-0.53;100.00;98100.38;5050428;28;20394;-74
2023/02/14 07:17:49;;;;;;;52.75;18.13;;;;;;;-0.55;100.00;98099.78;5049808;28;20033;-74
2023/02/14 07:20:17;;;;;;;45.83;17.88;;;;;;;-0.53;100.00;98103.88;5049811;28;20053;-74
2023/02/14 07:22:43;;;;;;;39.80;18.58;;;;;;;-0.43;100.00;98103.47;5050258;28;20045;-74
2023/02/14 07:25:11;;;;;;;48.28;18.25;;;;;;;-0.77;100.00;98101.81;5049766;28;20052;-75
2023/02/14 07:27:37;;;;;;;46.35;18.30;;;;;;;-0.74;100.00;98097.88;5050487;28;20060;-74
2023/02/14 07:30:05;;;;;;;45.30;18.15;;;;;;;-0.84;100.00;98096.41;5049195;28;20052;-74
2023/02/14 07:32:33;;;;;;;44.88;18.38;;;;;;;-0.61;100.00;98095.25;5049591;28;20045;-74
2023/02/14 07:34:59;;;;;;;40.08;18.33;;;;;;;-0.53;100.00;98098.53;5049974;28;20045;-74
2023/02/14 07:37:26;;;;;;;41.20;18.60;;;;;;;-0.48;100.00;98092.56;5050152;28;20049;-75
2023/02/14 07:39:52;;;;;;;39.20;18.45;;;;;;;-0.40;100.00;98086.22;5049813;28;20103;-75
2023/02/14 07:42:19;;;;;;;65.47;21.05;;;;;;;-0.49;100.00;98093.59;5049214;28;20045;-75
2023/02/14 07:44:46;;;;;;;40.75;18.15;;;;;;;-0.44;100.00;98096.50;5049684;28;20475;-74
2023/02/14 07:47:12;;;;;;;43.08;19.38;;;;;;;-0.40;100.00;98095.06;5049272;28;20531;-74
2023/02/14 07:49:40;;;;;;;42.35;19.48;;;;;;;-0.45;100.00;98096.69;5049609;28;20052;-75
2023/02/14 07:52:06;;;;;;;62.85;20.00;;;;;;;-0.81;100.00;98089.84;5049434;28;20060;-74
2023/02/14 07:54:33;;;;;;;43.40;18.75;;;;;;;-0.77;100.00;98090.28;5050184;28;20041;-74
2023/02/14 07:57:00;;;;;;;49.33;19.65;;;;;;;-0.61;100.00;98084.53;5050161;28;20056;-74
2023/02/14 07:59:26;;;;;;;45.83;19.83;;;;;;;-0.47;100.00;98091.56;5052471;28;20041;-75
2023/02/14 08:01:53;;;;;;;42.80;19.73;;;;;;;-0.43;100.00;98092.78;5053722;28;20041;-74
2023/02/14 08:04:20;;;;;;;50.10;20.10;;;;;;;-0.35;100.00;98089.09;5052896;28;20102;-75
2023/02/14 08:06:48;;;;;;;48.03;19.23;;;;;;;-0.22;100.00;98082.91;5054056;28;20103;-74
2023/02/14 08:09:23;;;;;;;43.08;18.25;;;;;;;-0.12;100.00;98083.31;5053142;28;20048;-74
2023/02/14 08:14:34;;;;;;;45.75;18.95;;;;;;;0.04;100.00;98082.06;5054312;28;20067;-74
2023/02/14 08:17:01;;;;;;;40.40;18.70;;;;;;;0.10;100.00;98076.69;5053768;28;20069;-74
2023/02/14 08:19:27;;;;;;;40.25;17.52;;;;;;;0.18;100.00;98073.78;5053571;28;20068;-73
2023/02/14 08:21:55;;;;;;;40.05;18.52;;;;;;;0.21;100.00;98078.75;5053343;28;20431;-73
2023/02/14 08:24:22;;;;;;;39.45;18.23;;;;;;;0.21;100.00;98076.06;5053394;28;20059;-72
2023/02/14 08:26:49;;;;;;;39.88;19.38;;;;;;;0.24;100.00;98072.94;5053540;28;20044;-72
2023/02/14 08:29:15;;;;;;;44.47;17.52;;;;;;;0.18;99.32;98081.00;5053177;28;20055;-72
2023/02/14 08:31:41;;;;;;;36.67;17.70;;;;;;;0.19;99.50;98069.25;5053610;28;20052;-72
2023/02/14 08:34:08;;;;;;;37.80;17.08;;;;;;;0.21;99.16;98073.38;5053004;28;20488;-73
2023/02/14 08:36:35;;;;;;;32.88;15.93;;;;;;;0.20;98.35;98074.38;5053752;28;20041;-72
2023/02/14 08:39:04;;;;;;;40.75;17.17;;;;;;;0.00;98.23;98070.94;5053295;28;20420;-77
2023/02/14 08:41:31;;;;;;;39.78;16.60;;;;;;;0.08;98.46;98077.94;5053636;28;20128;-72
2023/02/14 08:43:57;;;;;;;37.50;17.20;;;;;;;0.14;98.10;98077.91;5052589;28;20049;-73
2023/02/14 08:46:24;;;;;;;41.08;18.10;;;;;;;0.21;97.46;98073.38;5052419;28;20044;-72
2023/02/14 08:48:52;;;;;;;37.55;17.65;;;;;;;0.22;97.78;98076.88;5052381;28;20052;-73
2023/02/14 08:51:19;;;;;;;36.53;17.70;;;;;;;0.20;97.49;98077.06;5051917;28;20052;-73
2023/02/14 08:53:46;;;;;;;37.03;17.42;;;;;;;0.27;97.44;98081.63;5052447;28;20504;-72
2023/02/14 08:56:14;;;;;;;35.65;16.63;;;;;;;0.39;97.42;98085.28;5051893;28;20045;-73
2023/02/14 08:58:41;;;;;;;33.20;15.50;;;;;;;0.37;97.43;98087.34;5052339;28;20060;-74
2023/02/14 09:01:08;;;;;;;32.55;15.63;;;;;;;0.41;97.19;98085.88;5051801;28;20049;-75
2023/02/14 09:03:35;;;;;;;35.58;15.73;;;;;;;0.38;97.19;98083.66;5051988;28;20442;-73
2023/02/14 09:06:03;;;;;;;36.53;16.95;;;;;;;0.40;97.24;98085.06;5051714;28;20045;-73
2023/02/14 09:08:30;;;;;;;34.38;16.85;;;;;;;0.49;97.39;98080.31;5051858;28;20123;-75
2023/02/14 09:10:56;;;;;;;33.42;16.00;;;;;;;0.57;96.97;98088.09;5052031;28;20106;-72
2023/02/14 09:13:24;;;;;;;32.08;15.57;;;;;;;0.51;96.24;98088.94;5051800;28;20048;-73
2023/02/14 09:15:50;;;;;;;29.38;14.23;;;;;;;0.50;96.24;98081.94;5052719;28;20049;-73
2023/02/14 09:18:17;;;;;;;29.70;14.85;;;;;;;0.53;95.30;98092.25;5054184;28;20129;-73
2023/02/14 09:20:44;;;;;;;31.00;14.65;;;;;;;0.55;95.27;98089.34;5052813;28;20091;-75
2023/02/14 09:23:10;;;;;;;31.70;14.98;;;;;;;0.47;94.39;98087.72;5051485;28;20648;-75
2023/02/14 09:25:37;;;;;;;33.13;14.52;;;;;;;0.44;94.53;98088.16;5052297;28;20056;-75
2023/02/14 09:28:03;;;;;;;31.83;15.18;;;;;;;0.32;94.65;98084.50;5051672;28;20045;-73
2023/02/14 09:30:31;;;;;;;34.40;16.10;;;;;;;0.43;95.04;98087.34;5052157;28;20037;-73
2023/02/14 09:32:59;;;;;;;43.40;18.38;;;;;;;-0.28;96.38;98085.38;5051959;28;20049;-75
2023/02/14 09:35:25;;;;;;;58.58;18.90;;;;;;;-0.66;100.00;98089.69;5051585;28;20048;-75
2023/02/14 09:37:52;;;;;;;39.80;18.27;;;;;;;-0.49;100.00;98090.09;5055211;28;20056;-75
2023/02/14 09:40:19;;;;;;;38.28;17.98;;;;;;;-0.10;99.66;98089.28;5054842;28;20045;-73
2023/02/14 09:42:55;;;;;;;40.58;17.45;;;;;;;-0.08;99.00;98089.91;5051345;28;20524;-73
2023/02/14 09:45:25;;;;;;;40.63;17.80;;;;;;;0.20;98.63;98093.13;5051425;28;20061;-73
2023/02/14 09:47:57;;;;;;;42.22;18.02;;;;;;;0.31;98.52;98083.63;5051811;28;20049;-74
2023/02/14 09:50:27;;;;;;;37.90;17.88;;;;;;;0.39;97.50;98087.97;5050998;28;20040;-74
2023/02/14 09:52:57;;;;;;;33.40;15.68;;;;;;;0.48;97.06;98082.16;5051518;28;20049;-74
2023/02/14 09:55:29;;;;;;;36.53;17.83;;;;;;;0.63;96.33;98075.72;5050494;28;20048;-73
2023/02/14 09:58:04;;;;;;;37.10;17.48;;;;;;;0.75;95.41;98080.19;5051101;28;20562;-75
2023/02/14 10:00:37;;;;;;;34.25;16.73;;;;;;;0.80;95.20;98076.06;5050694;28;20044;-75
2023/02/14 10:03:18;;;;;;;32.00;14.95;;;;;;;0.89;94.57;98074.75;5050386;28;20072;-73
2023/02/14 10:05:54;;;;;;;38.67;17.90;;;;;;;0.55;93.45;98074.09;5045063;28;20044;-73
2023/02/14 10:08:35;;;;;;;38.00;17.60;;;;;;;0.64;94.26;98082.72;5050633;28;20072;-73
2023/02/14 10:11:05;;;;;;;37.28;17.40;;;;;;;0.78;94.37;98077.09;5050524;28;20453;-75
2023/02/14 10:13:39;;;;;;;31.23;15.52;;;;;;;1.01;94.57;98078.44;5050957;28;20049;-74
2023/02/14 10:16:15;;;;;;;32.67;15.88;;;;;;;1.11;94.53;98072.59;5050419;28;20045;-75
2023/02/14 10:18:49;;;;;;;33.28;16.75;;;;;;;1.17;94.13;98082.47;5050915;28;20040;-74
2023/02/14 10:21:23;;;;;;;36.03;17.67;;;;;;;1.20;93.53;98074.81;5049505;28;20041;-74
2023/02/14 10:23:57;;;;;;;33.65;16.35;;;;;;;1.27;92.93;98080.13;5050670;28;20153;-72
2023/02/14 10:26:30;;;;;;;35.08;16.52;;;;;;;1.22;93.16;98074.59;5051032;28;20045;-75
2023/02/14 10:28:56;;;;;;;35.95;17.33;;;;;;;1.26;93.01;98070.44;5051387;28;20045;-75
2023/02/14 10:31:25;;;;;;;39.72;17.80;;;;;;;1.23;92.21;98070.88;5050637;28;20053;-75
2023/02/14 10:33:55;;;;;;;38.45;18.95;;;;;;;1.30;92.15;98072.50;5050611;28;20045;-75
2023/02/14 10:36:36;;;;;;;33.05;16.83;;;;;;;1.44;91.52;98070.50;5049851;28;20049;-75
2023/02/14 10:39:17;;;;;;;39.42;17.90;;;;;;;1.25;92.14;98058.91;5049909;28;20045;-73
2023/02/14 10:41:50;;;;;;;38.00;17.42;;;;;;;1.45;91.76;98068.66;5050183;28;20088;-74
2023/02/14 10:44:30;;;;;;;33.63;17.02;;;;;;;1.40;92.22;98063.13;5049601;28;20436;-73
2023/02/14 10:47:04;;;;;;;34.95;17.00;;;;;;;1.35;92.26;98062.94;5050394;28;20048;-73
2023/02/14 10:49:41;;;;;;;37.22;17.98;;;;;;;1.55;91.78;98053.69;5050061;28;20409;-73
2023/02/14 10:52:17;;;;;;;37.08;18.77;;;;;;;1.61;92.00;98049.31;5049670;28;20049;-73
2023/02/14 10:54:50;;;;;;;40.03;18.35;;;;;;;1.50;90.96;98047.34;5050200;28;20040;-73
2023/02/14 10:57:22;;;;;;;35.45;16.92;;;;;;;1.46;90.06;98046.97;5049584;28;20520;-73
2023/02/14 10:59:53;;;;;;;36.40;17.58;;;;;;;1.46;90.58;98043.44;5049798;28;20041;-73
2023/02/14 11:02:23;;;;;;;36.38;17.52;;;;;;;1.61;89.82;98035.88;5049297;28;20067;-72
2023/02/14 11:04:52;;;;;;;38.17;17.55;;;;;;;1.71;89.63;98032.72;5049741;28;20052;-74
2023/02/14 11:07:21;;;;;;;35.05;17.33;;;;;;;1.46;90.05;98038.06;5049462;28;20045;-73
2023/02/14 11:09:47;;;;;;;31.88;14.77;;;;;;;1.31;90.00;98030.38;5050047;28;20071;-73
2023/02/14 11:12:32;;;;;;;37.22;17.65;;;;;;;1.38;90.48;98033.81;5049324;28;20500;-72
2023/02/14 11:15:09;;;;;;;32.22;15.82;;;;;;;1.48;90.20;98027.97;5049975;28;20410;-73
2023/02/14 11:17:36;;;;;;;37.42;17.88;;;;;;;1.56;89.39;98016.94;5049568;28;20044;-73
2023/02/14 11:20:22;;;;;;;37.50;17.50;;;;;;;1.78;88.83;98023.56;5049202;28;20049;-75
2023/02/14 11:22:49;;;;;;;38.80;16.95;;;;;;;2.04;89.26;98021.69;5049626;28;20048;-72
2023/02/14 11:25:21;;;;;;;39.95;18.27;;;;;;;2.11;89.11;98008.97;5049176;28;20505;-72
2023/02/14 11:27:50;;;;;;;35.75;17.42;;;;;;;2.24;89.29;98008.81;5049718;28;20106;-74
2023/02/14 11:30:22;;;;;;;35.75;18.08;;;;;;;2.20;86.99;97999.59;5048907;28;20087;-75
2023/02/14 11:32:55;;;;;;;32.38;16.33;;;;;;;2.20;87.51;98002.28;5051829;28;20041;-74
2023/02/14 11:35:27;;;;;;;37.07;17.80;;;;;;;2.31;88.28;97993.44;5053218;28;20560;-72
2023/02/14 11:37:55;;;;;;;38.00;17.65;;;;;;;2.54;87.60;97991.94;5053687;28;20287;-73
2023/02/14 11:40:28;;;;;;;41.78;19.02;;;;;;;2.80;86.26;97986.19;5053396;28;20049;-73